Time;durP1;ratioP1;P1;durP2;ratioP2;P2;SDS_P1;SDS_P2;PMS_P1;PMS_P2;Temp;Humidity;BMP_temperature;BMP_pressure;BME280_temperature;BME280_humidity;BME280_pressure;Samples;Min_cycle;Max_cycle;Signal;HPM_P1;HPM_P2
2022/11/15 00:00:51;;;;;;;38.85;28.33;;;;;;;5.88;100.00;100702.50;4961436;28;20027;-67
2022/11/15 00:03:18;;;;;;;39.25;27.15;;;;;;;5.91;100.00;100700.09;4949492;28;20066;-67
2022/11/15 00:05:43;;;;;;;37.63;27.00;;;;;;;5.94;100.00;100694.19;4954376;28;20478;-67
2022/11/15 00:08:09;;;;;;;39.85;27.10;;;;;;;5.97;100.00;100697.78;4957756;28;20097;-66
2022/11/15 00:10:35;;;;;;;37.38;27.60;;;;;;;5.98;100.00;100691.84;4949185;28;20027;-67
2022/11/15 00:13:04;;;;;;;38.75;26.67;;;;;;;6.01;100.00;100689.44;4949114;28;20043;-67
2022/11/15 00:15:29;;;;;;;39.42;27.00;;;;;;;6.06;100.00;100696.53;4949749;28;20062;-67
2022/11/15 00:17:54;;;;;;;37.38;25.48;;;;;;;6.08;100.00;100690.63;4949318;28;20059;-67
2022/11/15 00:20:20;;;;;;;39.08;26.83;;;;;;;6.10;100.00;100693.28;4949818;28;20081;-67
2022/11/15 00:22:45;;;;;;;38.42;26.58;;;;;;;6.15;100.00;100696.97;4951297;28;20049;-67
2022/11/15 00:25:10;;;;;;;38.33;27.10;;;;;;;6.17;100.00;100690.19;4955368;28;20027;-67
2022/11/15 00:27:36;;;;;;;35.35;26.88;;;;;;;6.20;100.00;100694.59;4957429;28;20027;-67
2022/11/15 00:30:01;;;;;;;38.88;26.27;;;;;;;6.23;100.00;100695.63;4950156;28;20027;-67
2022/11/15 00:32:30;;;;;;;40.20;27.58;;;;;;;6.27;100.00;100693.19;4949648;28;20038;-67
2022/11/15 00:34:55;;;;;;;35.83;25.30;;;;;;;6.31;100.00;100689.97;4949268;28;20470;-66
2022/11/15 00:37:21;;;;;;;38.42;27.02;;;;;;;6.33;100.00;100681.50;4948842;28;20062;-67
2022/11/15 00:39:46;;;;;;;37.10;26.30;;;;;;;6.37;100.00;100690.25;4962457;28;20046;-66
2022/11/15 00:42:11;;;;;;;38.83;26.67;;;;;;;6.39;100.00;100691.19;4956839;28;20310;-67
2022/11/15 00:44:36;;;;;;;38.42;26.88;;;;;;;6.43;100.00;100682.81;4948994;28;20038;-67
2022/11/15 00:47:02;;;;;;;35.63;24.75;;;;;;;6.45;100.00;100676.06;4950156;28;20047;-66
2022/11/15 00:49:27;;;;;;;32.03;24.65;;;;;;;6.49;100.00;100677.94;4960978;28;20038;-66
2022/11/15 00:51:52;;;;;;;37.67;25.50;;;;;;;6.54;100.00;100679.84;4948577;28;20045;-66
2022/11/15 00:54:17;;;;;;;33.40;25.30;;;;;;;6.58;100.00;100681.78;4948923;28;20487;-66
2022/11/15 00:56:43;;;;;;;34.97;25.63;;;;;;;6.62;100.00;100672.50;4951494;28;20033;-66
2022/11/15 00:59:08;;;;;;;32.95;24.38;;;;;;;6.64;100.00;100668.31;4956505;28;20030;-66
2022/11/15 01:01:33;;;;;;;35.80;25.90;;;;;;;6.66;100.00;100670.13;4954130;28;20035;-66
2022/11/15 01:03:59;;;;;;;33.50;24.83;;;;;;;6.70;100.00;100672.03;4949444;28;20023;-66
2022/11/15 01:06:24;;;;;;;31.20;24.13;;;;;;;6.75;100.00;100671.34;4959398;28;20031;-67
2022/11/15 01:08:49;;;;;;;33.83;24.38;;;;;;;6.79;100.00;100673.25;4964515;28;20051;-66
2022/11/15 01:11:14;;;;;;;34.78;25.40;;;;;;;6.83;100.00;100667.44;4949089;28;20422;-67
2022/11/15 01:13:40;;;;;;;33.70;25.05;;;;;;;6.85;100.00;100666.66;4948920;28;20369;-66
2022/11/15 01:16:14;;;;;;;30.83;23.52;;;;;;;6.89;100.00;100662.53;4949271;28;20031;-67
2022/11/15 01:18:40;;;;;;;30.40;23.65;;;;;;;6.93;100.00;100668.69;4948256;28;20463;-66
2022/11/15 01:21:10;;;;;;;32.90;24.60;;;;;;;6.97;100.00;100665.44;4949143;28;20023;-66
2022/11/15 01:23:36;;;;;;;31.63;24.30;;;;;;;7.01;100.00;100661.31;4950400;28;20605;-67
2022/11/15 01:26:03;;;;;;;32.03;24.83;;;;;;;7.05;100.00;100663.22;4949214;28;20059;-67
2022/11/15 01:28:33;;;;;;;33.67;24.08;;;;;;;7.08;100.00;100648.78;4954359;28;20027;-66
2022/11/15 01:31:00;;;;;;;32.97;24.90;;;;;;;7.12;100.00;100649.78;4965271;28;20057;-68
2022/11/15 01:33:27;;;;;;;31.65;24.70;;;;;;;7.14;100.00;100648.13;4948494;28;20485;-68
2022/11/15 01:35:52;;;;;;;33.33;23.52;;;;;;;7.16;100.00;100641.34;4961202;28;20089;-68
2022/11/15 01:38:17;;;;;;;32.17;23.48;;;;;;;7.20;100.00;100645.84;4955398;28;20232;-68
2022/11/15 01:40:42;;;;;;;32.33;25.83;;;;;;;7.23;100.00;100634.78;4954147;28;20031;-67
2022/11/15 01:43:29;;;;;;;33.03;24.17;;;;;;;7.26;100.00;100647.81;4951762;28;20023;-67
2022/11/15 01:46:30;;;;;;;30.98;23.58;;;;;;;7.31;100.00;100650.56;4952344;28;20486;-67
2022/11/15 01:49:00;;;;;;;29.20;24.33;;;;;;;7.38;100.00;100649.13;4951992;28;20031;-66
2022/11/15 01:51:29;;;;;;;36.97;25.17;;;;;;;7.42;100.00;100646.75;4952349;28;20063;-67
2022/11/15 01:53:58;;;;;;;38.85;25.70;;;;;;;7.47;100.00;100651.19;4956198;28;20119;-67
2022/11/15 01:56:27;;;;;;;31.45;24.30;;;;;;;7.52;100.00;100642.00;4964903;28;20058;-66
2022/11/15 01:58:55;;;;;;;37.17;26.00;;;;;;;7.56;100.00;100641.28;4952496;28;20027;-67
2022/11/15 02:01:22;;;;;;;32.45;25.17;;;;;;;7.62;100.00;100641.53;4952165;28;20106;-67
2022/11/15 02:03:56;;;;;;;36.25;25.38;;;;;;;7.68;100.00;100641.78;4951805;28;20114;-67
2022/11/15 02:06:22;;;;;;;35.28;25.40;;;;;;;7.73;100.00;100638.50;4960195;28;20031;-68
2022/11/15 02:08:49;;;;;;;38.03;26.63;;;;;;;7.78;100.00;100634.41;4960917;28;20715;-68
2022/11/15 02:11:14;;;;;;;37.50;27.67;;;;;;;7.81;100.00;100631.94;4978046;28;20065;-68
2022/11/15 02:13:40;;;;;;;37.33;27.17;;;;;;;7.87;100.00;100621.00;4953445;28;20534;-68
2022/11/15 02:16:21;;;;;;;41.40;26.13;;;;;;;7.92;100.00;100622.06;4973520;28;20429;-67
2022/11/15 02:19:00;;;;;;;35.13;26.10;;;;;;;7.96;100.00;100625.63;4953885;28;20086;-67
2022/11/15 02:21:52;;;;;;;34.70;25.17;;;;;;;8.01;100.00;100616.38;4952657;28;20487;-67
2022/11/15 02:24:55;;;;;;;38.10;25.80;;;;;;;8.06;100.00;100622.59;4967964;28;20022;-67
2022/11/15 02:28:00;;;;;;;35.22;25.90;;;;;;;8.12;100.00;100611.63;4953973;28;20050;-67
2022/11/15 02:30:44;;;;;;;37.60;25.85;;;;;;;8.17;100.00;100621.31;4950688;28;20070;-67
2022/11/15 02:33:23;;;;;;;34.70;25.45;;;;;;;8.22;100.00;100612.88;4969476;28;20083;-66
2022/11/15 02:35:59;;;;;;;39.83;27.10;;;;;;;8.24;100.00;100606.09;4951725;28;20578;-67
2022/11/15 02:39:06;;;;;;;33.58;26.08;;;;;;;8.27;100.00;100604.47;4951319;28;20027;-67
2022/11/15 02:41:42;;;;;;;39.83;27.52;;;;;;;8.38;100.00;100611.75;4957179;28;20111;-67
2022/11/15 02:44:15;;;;;;;36.83;28.35;;;;;;;8.44;100.00;100598.19;4950944;28;20027;-67
2022/11/15 02:49:34;;;;;;;36.78;27.77;;;;;;;8.51;100.00;100601.03;4951329;28;20053;-66
2022/11/15 02:51:59;;;;;;;36.53;27.08;;;;;;;8.52;100.00;100601.94;4950560;28;20051;-67
2022/11/15 02:54:28;;;;;;;39.00;27.33;;;;;;;8.54;100.00;100595.13;4950888;28;20031;-66
2022/11/15 02:57:00;;;;;;;40.17;27.40;;;;;;;8.59;100.00;100598.78;4951237;28;20742;-67
2022/11/15 02:59:28;;;;;;;39.95;27.83;;;;;;;8.61;100.00;100597.16;4950635;28;20023;-67
2022/11/15 03:02:20;;;;;;;33.78;27.95;;;;;;;8.67;100.00;100590.44;4976449;28;20460;-67
2022/11/15 03:04:54;;;;;;;34.60;27.45;;;;;;;8.70;100.00;100582.78;4950462;28;20031;-67
2022/11/15 03:07:29;;;;;;;37.45;27.88;;;;;;;8.72;100.00;100578.56;4963472;28;20265;-67
2022/11/15 03:09:57;;;;;;;34.08;27.67;;;;;;;8.75;100.00;100583.81;4950903;28;20383;-67
2022/11/15 03:12:57;;;;;;;36.28;26.63;;;;;;;8.75;100.00;100583.81;4950428;28;20039;-67
2022/11/15 03:15:36;;;;;;;31.33;26.42;;;;;;;8.76;100.00;100581.28;4979818;28;20031;-67
2022/11/15 03:18:27;;;;;;;32.42;25.27;;;;;;;8.77;100.00;100577.91;4957108;28;20118;-67
2022/11/15 03:20:55;;;;;;;34.35;24.92;;;;;;;8.78;100.00;100586.50;4950496;28;20038;-67
2022/11/15 03:23:20;;;;;;;32.47;25.52;;;;;;;8.80;100.00;100592.63;4955303;28;20501;-67
2022/11/15 03:25:49;;;;;;;29.42;24.80;;;;;;;8.82;100.00;100588.38;4950395;28;20162;-67
2022/11/15 03:28:23;;;;;;;32.70;25.13;;;;;;;8.85;100.00;100585.03;4950067;28;20486;-67
2022/11/15 03:30:50;;;;;;;33.97;26.40;;;;;;;8.87;100.00;100589.41;4950850;28;20611;-67
2022/11/15 03:33:16;;;;;;;31.33;24.08;;;;;;;8.89;100.00;100579.13;4951087;28;20395;-67
2022/11/15 03:35:44;;;;;;;34.95;26.70;;;;;;;8.89;100.00;100585.19;4954998;28;20019;-67
2022/11/15 03:38:21;;;;;;;32.97;25.85;;;;;;;8.93;100.00;100585.28;4968086;28;20295;-67
2022/11/15 03:40:56;;;;;;;35.10;25.00;;;;;;;8.94;100.00;100584.47;4953238;28;20031;-67
2022/11/15 03:43:47;;;;;;;31.02;25.75;;;;;;;8.97;100.00;100589.75;4970580;28;20078;-67
2022/11/15 03:46:16;;;;;;;37.45;26.73;;;;;;;8.97;100.00;100589.75;4949671;28;20085;-67
2022/11/15 03:48:47;;;;;;;41.28;27.90;;;;;;;9.00;100.00;100589.84;4949698;28;20051;-67
2022/11/15 03:51:13;;;;;;;34.72;27.52;;;;;;;9.02;100.00;100593.38;4951403;28;20050;-67
2022/11/15 03:53:40;;;;;;;35.35;27.17;;;;;;;9.04;100.00;100588.25;4951259;28;20365;-67
2022/11/15 03:56:06;;;;;;;36.95;26.30;;;;;;;9.06;100.00;100584.91;4950636;28;20369;-67
2022/11/15 03:58:31;;;;;;;41.75;28.23;;;;;;;9.07;100.00;100576.31;4955341;28;20542;-67
2022/11/15 04:00:56;;;;;;;42.35;28.85;;;;;;;9.09;100.00;100582.41;4963856;28;20033;-67
2022/11/15 04:03:22;;;;;;;42.80;30.02;;;;;;;9.11;100.00;100588.53;4954117;28;20033;-67
2022/11/15 04:05:47;;;;;;;41.88;30.10;;;;;;;9.14;100.00;100587.72;4968603;28;20383;-67
2022/11/15 04:08:12;;;;;;;43.85;29.83;;;;;;;9.15;100.00;100588.63;4957305;28;20031;-67
2022/11/15 04:10:38;;;;;;;36.85;28.63;;;;;;;9.15;100.00;100579.16;4962865;28;20035;-67
2022/11/15 04:13:03;;;;;;;40.08;28.58;;;;;;;9.16;100.00;100572.25;4949706;28;20031;-67
2022/11/15 04:15:29;;;;;;;41.83;28.45;;;;;;;9.18;100.00;100578.38;4952971;28;20101;-67
2022/11/15 04:17:56;;;;;;;41.28;28.92;;;;;;;9.18;100.00;100578.38;4965622;28;20033;-67
2022/11/15 04:25:56;;;;;;;42.88;28.20;;;;;;;9.21;100.00;100575.91;4949615;28;20125;-67
2022/11/15 04:28:22;;;;;;;42.80;28.27;;;;;;;9.20;100.00;100576.72;4952993;28;20061;-67
2022/11/15 04:30:47;;;;;;;37.28;27.98;;;;;;;9.21;100.00;100583.66;4954178;28;20058;-67
2022/11/15 04:33:13;;;;;;;37.50;28.52;;;;;;;9.22;100.00;100580.25;4948604;28;20531;-68
2022/11/15 04:35:38;;;;;;;37.10;28.05;;;;;;;9.22;100.00;100573.38;4949566;28;20125;-67
2022/11/15 04:38:07;;;;;;;38.45;28.45;;;;;;;9.22;100.00;100581.13;4949073;28;20019;-67
2022/11/15 04:40:32;;;;;;;39.00;28.25;;;;;;;9.23;100.00;100580.28;4949205;28;20027;-67
2022/11/15 04:42:58;;;;;;;39.15;27.23;;;;;;;9.23;100.00;100576.81;4949001;28;20079;-67
2022/11/15 04:45:23;;;;;;;44.50;28.50;;;;;;;9.23;100.00;100589.75;4948297;28;20035;-68
2022/11/15 04:47:48;;;;;;;39.58;28.17;;;;;;;9.24;100.00;100589.81;4952409;28;20370;-68
2022/11/15 04:50:15;;;;;;;40.80;28.48;;;;;;;9.24;100.00;100584.66;4954328;28;20102;-68
2022/11/15 04:52:42;;;;;;;37.00;28.35;;;;;;;9.24;100.00;100583.75;4954145;28;20027;-68
2022/11/15 04:55:10;;;;;;;37.85;27.98;;;;;;;9.26;100.00;100582.13;4953707;28;20026;-67
2022/11/15 04:57:36;;;;;;;36.40;27.10;;;;;;;9.26;100.00;100589.88;4951213;28;20037;-67
2022/11/15 05:00:07;;;;;;;36.25;27.73;;;;;;;9.25;100.00;100580.34;4951621;28;20390;-67
2022/11/15 05:05:16;;;;;;;38.05;26.30;;;;;;;9.26;100.00;100576.94;4951091;28;20480;-67
2022/11/15 05:07:41;;;;;;;38.10;27.67;;;;;;;9.26;100.00;100589.88;4949156;28;20023;-67
2022/11/15 05:10:07;;;;;;;38.60;26.20;;;;;;;9.25;100.00;100576.06;4956115;28;20040;-67
2022/11/15 05:12:32;;;;;;;37.60;27.42;;;;;;;9.24;100.00;100574.31;4969650;28;20023;-67
2022/11/15 05:14:58;;;;;;;39.60;27.83;;;;;;;9.27;100.00;100575.22;4959615;28;20050;-67
2022/11/15 05:17:23;;;;;;;34.47;26.88;;;;;;;9.26;100.00;100576.94;4952451;28;20031;-67
2022/11/15 05:19:48;;;;;;;36.05;26.92;;;;;;;9.24;100.00;100578.59;4952743;28;20058;-67
2022/11/15 05:22:13;;;;;;;38.80;27.58;;;;;;;9.24;100.00;100576.00;4971248;28;20018;-67
2022/11/15 05:24:39;;;;;;;37.22;27.52;;;;;;;9.23;100.00;100567.38;4959709;28;20107;-67
2022/11/15 05:27:04;;;;;;;36.72;27.08;;;;;;;9.23;100.00;100572.53;4956564;28;20023;-67
2022/11/15 05:29:29;;;;;;;39.10;27.08;;;;;;;9.24;100.00;100571.72;4957792;28;20027;-67
2022/11/15 05:31:55;;;;;;;38.30;28.27;;;;;;;9.24;100.00;100569.13;4956072;28;20057;-67
2022/11/15 05:34:22;;;;;;;34.60;27.23;;;;;;;9.25;100.00;100573.47;4953092;28;20059;-67
2022/11/15 05:36:48;;;;;;;35.75;27.95;;;;;;;9.25;100.00;100565.72;4954829;28;20114;-67
2022/11/15 05:39:14;;;;;;;37.03;27.85;;;;;;;9.27;100.00;100567.47;4956225;28;20075;-67
2022/11/15 05:41:56;;;;;;;37.35;27.63;;;;;;;9.27;100.00;100563.16;4955326;28;20076;-67
2022/11/15 05:44:23;;;;;;;34.17;27.15;;;;;;;9.27;100.00;100563.16;4952704;28;20023;-67
2022/11/15 05:46:49;;;;;;;38.08;26.45;;;;;;;9.28;100.00;100562.38;4952848;28;20119;-67
2022/11/15 05:49:19;;;;;;;39.00;27.85;;;;;;;9.29;100.00;100556.34;4955040;28;20411;-67
2022/11/15 05:51:47;;;;;;;37.25;25.83;;;;;;;9.29;100.00;100561.53;4957561;28;20376;-67
2022/11/15 05:54:15;;;;;;;32.58;26.13;;;;;;;9.30;100.00;100562.41;4951462;28;20150;-67
2022/11/15 05:56:40;;;;;;;36.55;25.02;;;;;;;9.29;100.00;100561.53;4962301;28;20042;-67
2022/11/15 05:59:08;;;;;;;36.83;25.92;;;;;;;9.29;100.00;100565.81;4955534;28;20082;-67
2022/11/15 06:01:33;;;;;;;35.85;25.27;;;;;;;9.28;100.00;100564.94;4952656;28;20070;-67
2022/11/15 06:03:58;;;;;;;39.00;25.65;;;;;;;9.30;100.00;100575.34;4972339;28;20046;-67
2022/11/15 06:06:24;;;;;;;38.60;25.00;;;;;;;9.32;100.00;100574.53;4955046;28;20050;-67
2022/11/15 06:08:49;;;;;;;35.17;25.75;;;;;;;9.35;100.00;100582.38;4953667;28;20507;-67
2022/11/15 06:11:14;;;;;;;31.60;25.45;;;;;;;9.36;100.00;100579.00;4956127;28;20574;-66
2022/11/15 06:13:40;;;;;;;39.58;26.42;;;;;;;9.36;100.00;100584.16;4952775;28;20034;-67
2022/11/15 06:16:05;;;;;;;36.70;27.65;;;;;;;9.39;100.00;100585.09;4961554;28;20376;-67
2022/11/15 06:18:35;;;;;;;36.13;26.88;;;;;;;9.41;100.00;100578.28;4954182;28;20041;-67
2022/11/15 06:21:01;;;;;;;35.88;25.60;;;;;;;9.42;100.00;100582.59;4951778;28;20102;-67
2022/11/15 06:23:27;;;;;;;36.28;25.38;;;;;;;9.42;100.00;100587.78;4963799;28;20109;-67
2022/11/15 06:25:52;;;;;;;35.63;26.48;;;;;;;9.43;100.00;100592.13;4957262;28;20031;-67
2022/11/15 06:28:17;;;;;;;34.60;26.52;;;;;;;9.42;100.00;100591.25;4953402;28;20053;-67
2022/11/15 06:30:42;;;;;;;41.03;28.17;;;;;;;9.43;100.00;100589.53;4950690;28;20082;-67
2022/11/15 06:33:08;;;;;;;38.75;27.55;;;;;;;9.45;100.00;100582.69;4960239;28;20031;-67
2022/11/15 06:35:35;;;;;;;39.08;29.27;;;;;;;9.46;100.00;100595.69;4950818;28;20038;-67
2022/11/15 06:38:08;;;;;;;41.03;28.95;;;;;;;9.46;100.00;100600.00;4955991;28;20031;-68
2022/11/15 06:40:35;;;;;;;37.50;28.15;;;;;;;9.49;100.00;100594.91;4956539;28;20529;-67
2022/11/15 06:43:01;;;;;;;36.08;26.40;;;;;;;9.46;100.00;100595.69;4955632;28;20149;-68
2022/11/15 06:45:27;;;;;;;35.97;27.30;;;;;;;9.46;100.00;100597.41;4948836;28;20471;-67
2022/11/15 06:47:52;;;;;;;35.95;25.58;;;;;;;9.45;100.00;100600.81;4954021;28;20082;-67
2022/11/15 06:50:18;;;;;;;30.17;23.05;;;;;;;9.44;100.00;100606.81;4949494;28;20031;-68
2022/11/15 06:52:43;;;;;;;28.73;23.13;;;;;;;9.42;100.00;100608.47;4950010;28;20387;-67
2022/11/15 06:55:09;;;;;;;30.63;22.70;;;;;;;9.41;100.00;100611.91;4948309;28;20026;-67
2022/11/15 06:57:35;;;;;;;24.20;19.85;;;;;;;9.39;100.00;100611.81;4948720;28;20035;-67
2022/11/15 07:00:00;;;;;;;26.85;19.90;;;;;;;9.36;100.00;100612.63;4949020;28;20110;-67
2022/11/15 07:02:26;;;;;;;25.15;19.35;;;;;;;9.35;100.00;100616.00;4948274;28;20028;-65
2022/11/15 07:04:51;;;;;;;29.30;21.13;;;;;;;9.33;100.00;100609.94;4949624;28;20042;-64
2022/11/15 07:07:16;;;;;;;26.83;19.80;;;;;;;9.32;100.00;100618.50;4950713;28;20035;-65
2022/11/15 07:09:42;;;;;;;25.40;19.02;;;;;;;9.31;100.00;100615.88;4950404;28;20034;-65
2022/11/15 07:12:07;;;;;;;22.15;18.52;;;;;;;9.30;100.00;100619.28;4950504;28;20354;-65
2022/11/15 07:14:32;;;;;;;21.42;17.98;;;;;;;9.27;100.00;100614.88;4950438;28;20027;-65
2022/11/15 07:16:57;;;;;;;22.10;17.27;;;;;;;9.26;100.00;100618.31;4950502;28;20029;-65
2022/11/15 07:19:23;;;;;;;24.60;17.90;;;;;;;9.28;100.00;100621.84;4950409;28;20118;-65
2022/11/15 07:21:48;;;;;;;22.98;16.83;;;;;;;9.28;100.00;100627.00;4952923;28;20062;-65
2022/11/15 07:24:13;;;;;;;24.25;17.65;;;;;;;9.29;100.00;100627.88;4950569;28;20034;-65
2022/11/15 07:26:39;;;;;;;20.80;17.73;;;;;;;9.29;100.00;100631.34;4955951;28;20035;-65
2022/11/15 07:29:04;;;;;;;21.63;17.33;;;;;;;9.32;100.00;100633.13;4954022;28;20019;-65
2022/11/15 07:31:29;;;;;;;24.10;18.38;;;;;;;9.31;100.00;100632.28;4949141;28;20394;-65
2022/11/15 07:33:54;;;;;;;22.98;18.80;;;;;;;9.32;100.00;100628.84;4957021;28;20023;-65
2022/11/15 07:36:20;;;;;;;23.60;18.50;;;;;;;9.33;100.00;100634.91;4958434;28;20015;-68
2022/11/15 07:38:45;;;;;;;19.38;15.98;;;;;;;9.33;100.00;100635.78;4948883;28;20480;-67
2022/11/15 07:41:10;;;;;;;19.83;17.13;;;;;;;9.34;100.00;100634.06;4949121;28;20031;-67
2022/11/15 07:43:36;;;;;;;22.25;16.63;;;;;;;9.34;100.00;100626.31;4950003;28;20031;-66
2022/11/15 07:46:08;;;;;;;21.35;17.75;;;;;;;9.33;100.00;100620.28;4949900;28;20024;-64
2022/11/15 07:48:34;;;;;;;25.48;18.58;;;;;;;9.34;100.00;100616.84;4949022;28;20466;-63
2022/11/15 07:50:59;;;;;;;26.27;18.90;;;;;;;9.34;100.00;100621.13;4950050;28;20033;-63
2022/11/15 07:53:25;;;;;;;24.27;18.15;;;;;;;9.35;100.00;100618.59;4947914;28;20031;-64
2022/11/15 07:55:50;;;;;;;25.52;19.15;;;;;;;9.35;100.00;100615.16;4947971;28;20038;-63
2022/11/15 07:58:15;;;;;;;20.25;17.10;;;;;;;9.36;100.00;100617.78;4948108;28;20491;-63
2022/11/15 08:00:41;;;;;;;20.35;15.95;;;;;;;9.37;100.00;100616.09;4948561;28;20043;-63
2022/11/15 08:03:15;;;;;;;19.83;15.65;;;;;;;9.37;100.00;100616.94;4960197;28;20343;-63
2022/11/15 08:05:41;;;;;;;19.17;15.48;;;;;;;9.39;100.00;100623.91;4954857;28;20029;-63
2022/11/15 08:08:09;;;;;;;21.02;15.57;;;;;;;9.37;100.00;100627.28;4962519;28;20440;-63
2022/11/15 08:10:35;;;;;;;19.35;16.58;;;;;;;9.37;100.00;100631.59;4950874;28;20050;-63
2022/11/15 08:13:06;;;;;;;18.52;14.02;;;;;;;9.35;100.00;100639.28;4947943;28;20019;-63
2022/11/15 08:15:32;;;;;;;19.08;15.00;;;;;;;9.36;100.00;100640.19;4948726;28;20469;-63
2022/11/15 08:18:00;;;;;;;17.63;14.30;;;;;;;9.39;100.00;100642.00;4960446;28;20019;-63
2022/11/15 08:20:29;;;;;;;17.50;13.73;;;;;;;9.37;100.00;100637.63;4952011;28;20034;-63
2022/11/15 08:22:56;;;;;;;15.38;12.48;;;;;;;9.37;100.00;100635.06;4950301;28;20644;-63
2022/11/15 08:25:22;;;;;;;14.48;12.32;;;;;;;9.37;100.00;100634.19;4957928;28;20022;-63
2022/11/15 08:27:47;;;;;;;17.10;13.00;;;;;;;9.35;100.00;100623.78;4953260;28;20035;-64
2022/11/15 08:30:13;;;;;;;12.98;11.30;;;;;;;9.35;100.00;100631.53;4949205;28;20027;-64
2022/11/15 08:32:39;;;;;;;15.82;12.07;;;;;;;9.35;100.00;100634.13;4949362;28;20110;-64
2022/11/15 08:35:04;;;;;;;14.80;11.57;;;;;;;9.35;100.00;100628.94;4964295;28;20471;-63
2022/11/15 08:37:30;;;;;;;13.23;11.48;;;;;;;9.33;100.00;100630.63;4949321;28;20027;-63
2022/11/15 08:39:55;;;;;;;12.60;11.00;;;;;;;9.33;100.00;100622.88;4948319;28;20372;-63
2022/11/15 08:42:20;;;;;;;13.00;11.60;;;;;;;9.34;100.00;100615.97;4965389;28;20025;-63
2022/11/15 08:44:46;;;;;;;14.13;10.98;;;;;;;9.34;100.00;100614.28;4958186;28;20035;-63
2022/11/15 08:47:12;;;;;;;16.52;12.05;;;;;;;9.35;100.00;100608.25;4949134;28;20111;-63
2022/11/15 08:49:37;;;;;;;12.07;10.23;;;;;;;9.37;100.00;100600.56;4951699;28;20027;-63
2022/11/15 08:52:02;;;;;;;11.65;10.43;;;;;;;9.39;100.00;100603.22;4949033;28;20020;-63
2022/11/15 08:54:28;;;;;;;14.48;10.70;;;;;;;9.41;100.00;100601.56;4949284;28;20079;-64
2022/11/15 08:56:53;;;;;;;11.63;10.40;;;;;;;9.44;100.00;100602.53;4951253;28;20030;-63
2022/11/15 08:59:18;;;;;;;11.43;10.25;;;;;;;9.49;100.00;100605.25;4949578;28;20035;-63
2022/11/15 09:01:44;;;;;;;10.95;9.52;;;;;;;9.52;100.00;100597.59;4970854;28;20023;-64
2022/11/15 09:04:09;;;;;;;12.43;8.90;;;;;;;9.53;100.00;100601.06;4949024;28;20401;-64
2022/11/15 09:06:34;;;;;;;9.80;7.97;;;;;;;9.54;100.00;100597.63;4960254;28;20023;-63
2022/11/15 09:09:00;;;;;;;8.00;7.22;;;;;;;9.56;100.00;100593.41;4950157;28;20031;-65
2022/11/15 09:11:26;;;;;;;7.75;6.97;;;;;;;9.56;100.00;100589.13;4949347;28;20034;-64
2022/11/15 09:13:51;;;;;;;7.13;6.00;;;;;;;9.57;100.00;100580.50;4947765;28;20023;-64
2022/11/15 09:16:17;;;;;;;6.72;5.68;;;;;;;9.61;100.00;100579.78;4947894;28;20027;-64
2022/11/15 09:18:42;;;;;;;6.45;5.28;;;;;;;9.65;100.00;100570.41;4947844;28;20119;-64
2022/11/15 09:21:09;;;;;;;7.85;4.60;;;;;;;9.70;100.00;100573.13;4946491;28;20074;-64
2022/11/15 09:23:34;;;;;;;7.93;5.53;;;;;;;9.70;100.00;100567.97;4946498;28;20539;-64
2022/11/15 09:26:01;;;;;;;6.45;4.50;;;;;;;9.72;100.00;100558.53;4951280;28;20042;-64
2022/11/15 09:28:28;;;;;;;7.55;4.97;;;;;;;9.74;100.00;100556.88;4952736;28;20613;-64
2022/11/15 09:31:01;;;;;;;9.13;4.95;;;;;;;9.77;100.00;100567.31;4949070;28;20458;-64
2022/11/15 09:33:27;;;;;;;7.55;4.80;;;;;;;9.80;100.00;100564.84;4957809;28;20030;-64
2022/11/15 09:35:53;;;;;;;7.70;5.70;;;;;;;9.82;100.00;100564.91;4947970;28;20135;-64
2022/11/15 09:38:19;;;;;;;6.28;4.40;;;;;;;9.83;100.00;100564.94;4952018;28;20027;-64
2022/11/15 09:40:52;;;;;;;4.43;4.03;;;;;;;9.86;100.00;100558.97;4946113;28;20015;-64
2022/11/15 09:43:34;;;;;;;4.80;3.42;;;;;;;9.85;100.00;100552.94;4955295;28;20539;-64
2022/11/15 09:46:16;;;;;;;5.47;3.17;;;;;;;9.88;100.00;100561.59;4957027;28;20532;-64
2022/11/15 09:48:52;;;;;;;6.13;3.55;;;;;;;9.88;100.00;100553.81;4950843;28;20031;-64
2022/11/15 09:51:46;;;;;;;4.68;3.50;;;;;;;9.87;100.00;100550.38;4947023;28;20023;-64
2022/11/15 09:54:29;;;;;;;4.00;2.88;;;;;;;9.88;100.00;100557.31;4950380;28;20023;-64
2022/11/15 09:57:03;;;;;;;3.78;2.00;;;;;;;9.90;100.00;100559.94;4954885;28;20034;-64
2022/11/15 09:59:52;;;;;;;2.97;1.83;;;;;;;9.90;100.00;100555.66;4959557;28;20588;-64
2022/11/15 10:02:23;;;;;;;2.38;1.60;;;;;;;9.91;100.00;100551.34;4949403;28;20187;-64
2022/11/15 10:04:50;;;;;;;2.97;1.35;;;;;;;9.92;100.00;100548.81;4961707;28;20434;-64
2022/11/15 10:07:23;;;;;;;3.75;1.30;;;;;;;9.94;100.00;100548.84;4969770;28;20026;-64
2022/11/15 10:09:57;;;;;;;1.35;1.00;;;;;;;9.95;100.00;100548.88;4965438;28;20261;-65
2022/11/15 10:12:23;;;;;;;2.28;1.00;;;;;;;9.97;100.00;100546.34;4963329;28;20055;-64
2022/11/15 10:14:50;;;;;;;2.83;1.00;;;;;;;9.98;100.00;100540.34;4954369;28;20129;-64
2022/11/15 10:17:21;;;;;;;3.38;1.00;;;;;;;9.99;100.00;100543.78;4967000;28;20034;-65
2022/11/15 10:20:17;;;;;;;3.92;1.05;;;;;;;10.01;100.00;100542.13;4962452;28;20058;-64
2022/11/15 10:22:55;;;;;;;2.15;0.93;;;;;;;10.00;100.00;100530.91;4956087;28;20110;-64
2022/11/15 10:25:25;;;;;;;3.15;1.02;;;;;;;10.00;100.00;100541.25;4961584;28;20484;-64
2022/11/15 10:28:10;;;;;;;2.47;1.00;;;;;;;10.00;100.00;100546.44;4952247;28;20087;-64
2022/11/15 10:30:41;;;;;;;6.03;1.10;;;;;;;9.97;100.00;100542.06;4961741;28;20031;-64
2022/11/15 10:33:25;;;;;;;2.78;0.70;;;;;;;9.96;100.00;100532.53;4968106;28;20054;-64
2022/11/15 10:36:09;;;;;;;4.20;1.20;;;;;;;9.94;100.00;100516.09;4956964;28;20074;-64
2022/11/15 10:38:49;;;;;;;3.05;0.93;;;;;;;9.95;100.00;100519.53;4956611;28;20042;-64
2022/11/15 10:41:36;;;;;;;3.28;0.80;;;;;;;9.97;100.00;100508.41;4958674;28;20030;-64
2022/11/15 10:44:07;;;;;;;2.05;0.70;;;;;;;10.00;100.00;100502.41;4953105;28;20026;-64
2022/11/15 10:46:34;;;;;;;4.43;1.30;;;;;;;10.00;100.00;100515.38;4954000;28;20055;-64
2022/11/15 10:49:20;;;;;;;3.50;1.40;;;;;;;10.03;100.00;100504.22;4954310;28;20500;-63
2022/11/15 10:51:56;;;;;;;3.45;0.90;;;;;;;10.06;100.00;100501.72;4950395;28;20494;-65
2022/11/15 10:54:30;;;;;;;4.65;0.90;;;;;;;10.06;100.00;100496.53;4952120;28;20054;-64
2022/11/15 10:56:58;;;;;;;4.15;1.10;;;;;;;10.09;100.00;100494.94;4956218;28;20027;-64
2022/11/15 10:59:28;;;;;;;1.88;1.02;;;;;;;10.14;100.00;100497.66;4966569;28;20124;-66
2022/11/15 11:01:53;;;;;;;4.38;1.15;;;;;;;10.18;100.00;100498.63;4955263;28;20460;-66
2022/11/15 11:04:19;;;;;;;3.33;0.93;;;;;;;10.20;100.00;100491.75;4958188;28;20023;-66
2022/11/15 11:06:59;;;;;;;3.35;0.82;;;;;;;10.24;100.00;100483.25;4962773;28;20037;-64
2022/11/15 11:09:33;;;;;;;1.95;0.95;;;;;;;10.25;100.00;100479.84;4972428;28;20252;-65
2022/11/15 11:11:59;;;;;;;3.80;1.20;;;;;;;10.28;100.00;100485.09;4960464;28;20113;-64
2022/11/15 11:14:30;;;;;;;2.90;1.00;;;;;;;10.32;100.00;100478.28;4953668;28;20039;-64
2022/11/15 11:17:08;;;;;;;4.32;0.98;;;;;;;10.37;100.00;100468.03;4962102;28;20027;-64
2022/11/15 11:19:44;;;;;;;3.97;1.42;;;;;;;10.41;100.00;100468.19;4950997;28;20027;-65
2022/11/15 11:22:25;;;;;;;4.68;0.93;;;;;;;10.43;100.00;100453.53;4959630;28;20487;-64
2022/11/15 11:24:53;;;;;;;2.08;0.75;;;;;;;10.47;100.00;100458.81;4955021;28;20491;-64
2022/11/15 11:27:34;;;;;;;3.45;0.90;;;;;;;10.49;100.00;100452.00;4954807;28;20031;-65
2022/11/15 11:30:09;;;;;;;3.67;0.80;;;;;;;10.53;100.00;100446.03;4959988;28;20038;-64
2022/11/15 11:32:46;;;;;;;4.55;1.10;;;;;;;10.56;100.00;100444.41;4953769;28;20039;-64